Time;durP1;ratioP1;P1;durP2;ratioP2;P2;SDS_P1;SDS_P2;PMS_P1;PMS_P2;Temp;Humidity;BMP_temperature;BMP_pressure;BME280_temperature;BME280_humidity;BME280_pressure;Samples;Min_cycle;Max_cycle;Signal;HPM_P1;HPM_P2
2023/07/23 00:00:21;;;;;;;15.53;14.57;;;16.30;99.90;;;;;;5079784;28;20398;-53
2023/07/23 00:02:46;;;;;;;15.83;14.70;;;16.20;99.90;;;;;;5078348;28;20429;-50
2023/07/23 00:05:12;;;;;;;15.20;14.20;;;16.20;99.90;;;;;;5079648;28;20219;-51
2023/07/23 00:07:38;;;;;;;16.00;14.83;;;16.20;99.90;;;;;;5080239;28;20542;-52
2023/07/23 00:10:03;;;;;;;14.87;13.97;;;16.10;99.90;;;;;;5074251;28;20450;-48
2023/07/23 00:12:29;;;;;;;15.13;14.13;;;16.20;99.90;;;;;;5079190;28;20272;-51
2023/07/23 00:14:55;;;;;;;15.67;14.67;;;16.20;99.90;;;;;;5079324;28;20267;-50
2023/07/23 00:17:21;;;;;;;15.80;14.70;;;16.10;99.90;;;;;;5079855;28;20594;-53
2023/07/23 00:19:46;;;;;;;14.93;14.03;;;16.10;99.90;;;;;;5079840;28;20180;-46
2023/07/23 00:22:12;;;;;;;15.33;14.33;;;16.00;99.90;;;;;;5079501;28;20192;-49
2023/07/23 00:24:37;;;;;;;15.40;14.40;;;16.00;99.90;;;;;;5079283;28;20228;-48
2023/07/23 00:27:03;;;;;;;15.20;14.00;;;15.90;99.90;;;;;;5067885;28;20192;-52
2023/07/23 00:29:29;;;;;;;14.30;13.50;;;15.90;99.90;;;;;;5079323;28;20203;-49
2023/07/23 00:31:54;;;;;;;15.83;14.57;;;15.90;99.90;;;;;;5079275;28;20227;-47
2023/07/23 00:34:20;;;;;;;15.97;14.90;;;15.90;99.90;;;;;;5078976;28;20216;-55
2023/07/23 00:36:47;;;;;;;14.93;13.93;;;15.90;99.90;;;;;;5079619;28;20192;-53
2023/07/23 00:39:13;;;;;;;14.67;13.67;;;15.90;99.90;;;;;;5079011;28;20505;-51
2023/07/23 00:41:38;;;;;;;14.87;13.97;;;15.80;99.90;;;;;;5059803;28;20681;-48
2023/07/23 00:44:04;;;;;;;14.50;13.60;;;15.80;1.00;;;;;;5079038;28;20409;-46
2023/07/23 00:46:31;;;;;;;13.70;12.90;;;15.80;1.00;;;;;;5078105;28;20555;-51
2023/07/23 00:48:57;;;;;;;14.80;13.90;;;15.80;1.00;;;;;;5079457;28;20190;-54
2023/07/23 00:51:23;;;;;;;15.07;14.07;;;15.80;1.00;;;;;;5078690;28;20916;-53
2023/07/23 00:53:49;;;;;;;15.50;14.30;;;15.70;1.00;;;;;;5073033;28;20268;-52
2023/07/23 00:56:16;;;;;;;15.17;14.17;;;15.80;1.00;;;;;;5078946;28;20422;-51
2023/07/23 00:58:41;;;;;;;15.30;14.10;;;15.70;1.00;;;;;;5078878;28;20473;-51
2023/07/23 01:01:08;;;;;;;15.40;14.50;;;15.70;1.00;;;;;;5079080;28;20947;-48
2023/07/23 01:03:34;;;;;;;14.57;13.67;;;15.70;1.00;;;;;;5079217;28;20185;-54
2023/07/23 01:06:02;;;;;;;14.60;13.80;;;15.60;1.00;;;;;;5078896;28;20500;-51
2023/07/23 01:08:28;;;;;;;14.80;13.90;;;15.70;1.00;;;;;;5077470;28;20429;-52
2023/07/23 01:10:54;;;;;;;15.23;14.23;;;15.70;1.00;;;;;;5070952;28;20415;-51
2023/07/23 01:13:20;;;;;;;14.70;13.77;;;15.80;1.00;;;;;;5074325;28;20646;-48
2023/07/23 01:15:46;;;;;;;14.93;14.03;;;15.80;1.00;;;;;;5078864;28;20442;-50
2023/07/23 01:18:13;;;;;;;14.57;13.77;;;15.90;1.00;;;;;;5078832;28;20462;-51
2023/07/23 01:20:38;;;;;;;14.43;13.63;;;15.90;1.00;;;;;;5077080;28;20430;-53
2023/07/23 01:23:04;;;;;;;14.90;14.00;;;15.90;1.00;;;;;;5079098;28;20463;-50
2023/07/23 01:25:29;;;;;;;15.20;14.20;;;16.00;1.00;;;;;;5082542;28;20228;-51
2023/07/23 01:27:55;;;;;;;14.13;13.33;;;16.00;1.00;;;;;;5082782;28;20188;-50
2023/07/23 01:30:21;;;;;;;14.17;13.27;;;16.00;1.00;;;;;;5082560;28;20615;-53
2023/07/23 01:32:47;;;;;;;14.53;13.70;;;15.90;1.00;;;;;;5082767;28;20180;-46
2023/07/23 01:35:15;;;;;;;18.83;14.73;;;15.90;1.00;;;;;;5082561;28;20211;-50
2023/07/23 01:37:43;;;;;;;14.13;13.23;;;15.90;1.00;;;;;;5082048;28;20462;-52
2023/07/23 01:40:09;;;;;;;14.80;13.90;;;15.90;1.00;;;;;;5082468;28;20803;-51
2023/07/23 01:42:35;;;;;;;15.20;14.20;;;15.90;1.00;;;;;;5069204;28;20426;-54
2023/07/23 01:45:04;;;;;;;14.87;13.97;;;15.80;1.00;;;;;;5082503;28;20414;-51
2023/07/23 01:47:30;;;;;;;14.17;13.37;;;15.80;1.00;;;;;;5079994;28;20442;-48
2023/07/23 01:49:56;;;;;;;14.40;13.50;;;15.80;1.00;;;;;;5082290;28;20418;-50
2023/07/23 01:52:22;;;;;;;14.50;13.70;;;15.70;1.00;;;;;;5082296;28;20237;-48
2023/07/23 01:54:47;;;;;;;15.07;14.03;;;15.70;1.00;;;;;;5076216;28;20275;-43
2023/07/23 01:57:13;;;;;;;14.63;13.73;;;15.70;1.00;;;;;;5082182;28;20310;-42
2023/07/23 01:59:38;;;;;;;13.57;12.67;;;15.70;1.00;;;;;;5082148;28;20347;-43
2023/07/23 02:02:09;;;;;;;14.50;13.70;;;15.60;1.00;;;;;;5081802;28;20720;-40
2023/07/23 02:04:35;;;;;;;15.00;14.10;;;15.60;1.00;;;;;;5076898;28;20169;-41
2023/07/23 02:07:00;;;;;;;15.03;14.03;;;15.60;15.70;;;;;;5081726;28;20418;-46
2023/07/23 02:09:26;;;;;;;14.00;13.20;;;15.60;46.10;;;;;;5080642;28;20502;-41
2023/07/23 02:12:04;;;;;;;14.90;13.90;;;15.60;61.50;;;;;;5081792;28;20219;-47
2023/07/23 02:14:30;;;;;;;14.90;14.00;;;15.70;65.00;;;;;;5081696;28;20188;-40
2023/07/23 02:16:56;;;;;;;14.70;13.70;;;15.70;46.60;;;;;;5081603;28;20471;-44
2023/07/23 02:19:22;;;;;;;14.50;13.60;;;15.70;23.30;;;;;;5081964;28;20180;-43
2023/07/23 02:21:47;;;;;;;14.30;13.43;;;15.80;1.00;;;;;;5068609;28;20173;-43
2023/07/23 02:24:13;;;;;;;14.27;13.33;;;15.90;1.00;;;;;;5081282;28;20297;-44
2023/07/23 02:26:38;;;;;;;15.00;14.10;;;15.90;1.00;;;;;;5081618;28;20195;-41
2023/07/23 02:29:04;;;;;;;15.00;14.10;;;16.00;1.00;;;;;;5081998;28;20195;-45
2023/07/23 02:31:30;;;;;;;15.00;14.10;;;16.00;1.00;;;;;;5081419;28;20259;-43
2023/07/23 02:33:56;;;;;;;14.80;13.90;;;16.20;1.00;;;;;;5081413;28;20863;-43
2023/07/23 02:36:21;;;;;;;15.57;14.67;;;16.30;1.00;;;;;;5079733;28;20184;-45
2023/07/23 02:38:47;;;;;;;14.53;13.67;;;16.30;1.00;;;;;;5081177;28;20287;-45
2023/07/23 02:41:12;;;;;;;14.40;13.50;;;16.30;1.00;;;;;;5077763;28;20239;-54
2023/07/23 02:43:38;;;;;;;15.10;14.13;;;16.30;1.00;;;;;;5072599;28;20610;-51
2023/07/23 02:46:04;;;;;;;14.80;13.90;;;16.30;1.00;;;;;;5076432;28;20647;-52
2023/07/23 02:48:29;;;;;;;14.57;13.73;;;16.40;1.00;;;;;;5072305;28;20203;-52
2023/07/23 02:50:55;;;;;;;14.97;14.07;;;16.30;1.00;;;;;;5080720;28;20187;-51
2023/07/23 02:53:20;;;;;;;14.80;13.90;;;16.30;1.00;;;;;;5077733;28;20193;-48
2023/07/23 02:55:46;;;;;;;14.60;13.70;;;16.40;1.00;;;;;;5078488;28;20188;-51
2023/07/23 02:58:13;;;;;;;14.70;13.90;;;16.40;99.90;;;;;;5080656;28;20230;-51
2023/07/23 03:00:40;;;;;;;15.50;14.50;;;16.50;99.90;;;;;;5080971;28;20199;-49
2023/07/23 03:03:07;;;;;;;14.47;13.60;;;16.60;99.90;;;;;;5080638;28;20407;-53
2023/07/23 03:05:36;;;;;;;14.30;13.40;;;16.60;99.90;;;;;;5080708;28;20480;-52
2023/07/23 03:08:03;;;;;;;14.97;14.03;;;16.60;99.90;;;;;;5081016;28;20446;-52
2023/07/23 03:10:29;;;;;;;14.77;13.87;;;16.60;99.90;;;;;;5080739;28;20419;-52
2023/07/23 03:12:55;;;;;;;15.30;14.40;;;16.60;99.90;;;;;;5081317;28;20418;-55
2023/07/23 03:15:21;;;;;;;15.27;14.33;;;16.60;99.90;;;;;;5080416;28;20719;-49
2023/07/23 03:17:47;;;;;;;15.07;14.17;;;16.70;99.90;;;;;;5080492;28;20277;-51
2023/07/23 03:20:14;;;;;;;14.97;13.97;;;16.70;99.90;;;;;;5079556;28;20411;-54
2023/07/23 03:22:40;;;;;;;15.60;14.50;;;16.70;99.90;;;;;;5080166;28;20541;-49
2023/07/23 03:25:06;;;;;;;15.87;14.87;;;16.80;99.90;;;;;;5078119;28;20454;-48
2023/07/23 03:27:32;;;;;;;16.10;15.10;;;16.80;99.90;;;;;;5079132;28;20752;-48
2023/07/23 03:29:57;;;;;;;15.73;14.73;;;16.80;99.90;;;;;;5080601;28;20433;-47
2023/07/23 03:32:23;;;;;;;15.50;14.60;;;16.90;99.90;;;;;;5080121;28;20404;-53
2023/07/23 03:34:49;;;;;;;16.27;15.20;;;16.80;99.90;;;;;;5079918;28;20185;-54
2023/07/23 03:37:15;;;;;;;15.20;14.30;;;16.90;99.90;;;;;;5080249;28;20465;-50
2023/07/23 03:39:40;;;;;;;15.40;14.40;;;16.90;99.90;;;;;;5080103;28;20180;-46
2023/07/23 03:42:09;;;;;;;15.10;14.13;;;16.90;99.90;;;;;;5079648;28;20185;-49
2023/07/23 03:44:34;;;;;;;15.33;14.43;;;16.90;99.90;;;;;;5080085;28;20209;-50
2023/07/23 03:47:13;;;;;;;15.03;14.23;;;16.90;99.90;;;;;;5078921;28;20943;-53
2023/07/23 03:49:39;;;;;;;14.60;13.70;;;17.00;99.90;;;;;;5079802;28;20561;-43
2023/07/23 03:52:05;;;;;;;14.60;13.70;;;17.00;99.90;;;;;;5079966;28;20410;-41
2023/07/23 03:54:32;;;;;;;15.27;14.37;;;17.10;99.90;;;;;;5074130;28;20176;-42
2023/07/23 03:56:57;;;;;;;15.23;14.17;;;17.10;99.90;;;;;;5079686;28;20744;-49
2023/07/23 03:59:28;;;;;;;15.50;14.60;;;17.10;99.90;;;;;;5079819;28;21015;-43
2023/07/23 04:01:54;;;;;;;15.30;14.40;;;17.20;99.90;;;;;;5080069;28;20176;-45
2023/07/23 04:04:19;;;;;;;14.30;13.50;;;17.20;99.90;;;;;;5079702;28;20418;-42
2023/07/23 04:06:45;;;;;;;14.87;13.93;;;17.20;99.90;;;;;;5079745;28;20204;-42
2023/07/23 04:09:12;;;;;;;15.40;14.50;;;17.20;99.90;;;;;;5073378;28;20524;-41
2023/07/23 04:11:38;;;;;;;14.93;14.13;;;17.30;99.90;;;;;;5073777;28;20212;-41
2023/07/23 04:14:03;;;;;;;15.20;14.20;;;17.30;99.90;;;;;;5079032;28;20544;-43
2023/07/23 04:16:29;;;;;;;14.30;13.50;;;17.30;99.90;;;;;;5079588;28;20172;-40
2023/07/23 04:18:55;;;;;;;15.17;14.27;;;17.30;99.90;;;;;;5079199;28;20678;-45
2023/07/23 04:21:23;;;;;;;14.80;13.80;;;17.30;99.90;;;;;;5079484;28;20532;-47
2023/07/23 04:23:50;;;;;;;14.57;13.57;;;17.40;99.90;;;;;;5079240;28;20181;-44
2023/07/23 04:26:16;;;;;;;14.67;13.23;;;17.40;99.90;;;;;;5079263;28;20418;-45
2023/07/23 04:28:44;;;;;;;14.37;13.57;;;17.50;99.90;;;;;;5079142;28;20564;-43
2023/07/23 04:31:10;;;;;;;14.07;13.27;;;17.50;99.90;;;;;;5079193;28;20441;-43
2023/07/23 04:33:35;;;;;;;14.27;13.27;;;17.60;96.80;;;;;;5079242;28;20802;-43
2023/07/23 04:36:02;;;;;;;14.10;13.23;;;17.60;92.90;;;;;;5079362;28;20426;-42
2023/07/23 04:38:28;;;;;;;14.70;13.80;;;17.70;99.90;;;;;;5079248;28;20239;-43
2023/07/23 04:40:54;;;;;;;14.00;13.10;;;17.70;99.90;;;;;;5077655;28;20593;-44
2023/07/23 04:43:19;;;;;;;14.90;14.00;;;17.80;99.90;;;;;;5067857;28;20682;-42
2023/07/23 04:45:45;;;;;;;14.20;13.40;;;17.80;99.90;;;;;;5078131;28;20184;-45
2023/07/23 04:48:12;;;;;;;15.00;14.00;;;17.80;99.90;;;;;;5079263;28;20646;-42
2023/07/23 04:50:38;;;;;;;14.50;13.60;;;17.90;99.90;;;;;;5079415;28;20207;-44
2023/07/23 04:53:03;;;;;;;14.20;13.40;;;18.00;99.90;;;;;;5078127;28;20513;-49
2023/07/23 04:55:29;;;;;;;15.27;14.07;;;18.10;99.90;;;;;;5074276;28;20184;-43
2023/07/23 04:57:55;;;;;;;14.83;13.93;;;18.20;99.90;;;;;;5078898;28;20254;-45
2023/07/23 05:00:21;;;;;;;15.07;14.10;;;18.20;99.90;;;;;;5083080;28;20184;-44
2023/07/23 05:02:47;;;;;;;14.40;13.50;;;18.30;99.90;;;;;;5083479;28;20414;-47
2023/07/23 05:05:12;;;;;;;15.10;14.03;;;18.40;99.90;;;;;;5082927;28;20691;-47
2023/07/23 05:07:39;;;;;;;14.07;13.27;;;18.40;99.90;;;;;;5083106;28;20212;-46
2023/07/23 05:10:05;;;;;;;15.63;14.63;;;18.50;99.90;;;;;;5082691;28;20332;-44
2023/07/23 05:12:30;;;;;;;14.60;13.60;;;18.60;99.90;;;;;;5082841;28;20525;-42
2023/07/23 05:15:10;;;;;;;14.13;13.23;;;18.70;99.90;;;;;;5083113;28;20937;-47
2023/07/23 05:17:35;;;;;;;14.30;13.50;;;18.70;99.90;;;;;;5083098;28;20573;-43
2023/07/23 05:20:01;;;;;;;14.00;13.20;;;18.70;99.90;;;;;;5082559;28;20428;-44
2023/07/23 05:22:27;;;;;;;14.17;13.27;;;18.80;99.90;;;;;;5083088;28;20722;-47
2023/07/23 05:24:53;;;;;;;14.37;13.57;;;19.00;99.90;;;;;;5082324;28;20465;-43
2023/07/23 05:27:18;;;;;;;14.03;13.13;;;19.10;99.90;;;;;;5082572;28;20196;-46
2023/07/23 05:29:44;;;;;;;14.43;13.53;;;19.30;96.30;;;;;;5082606;28;20215;-45
2023/07/23 05:32:09;;;;;;;14.33;13.53;;;19.50;40.60;;;;;;5082369;28;20216;-43
2023/07/23 05:34:35;;;;;;;14.57;13.50;;;19.60;1.00;;;;;;5082697;28;20192;-50
2023/07/23 05:37:00;;;;;;;14.20;13.40;;;19.70;1.00;;;;;;5082472;28;20188;-42
2023/07/23 05:39:26;;;;;;;14.17;13.37;;;19.80;1.00;;;;;;5082534;28;20580;-45
2023/07/23 05:41:51;;;;;;;14.70;13.70;;;19.90;1.00;;;;;;5072930;28;20173;-48
2023/07/23 05:44:17;;;;;;;14.37;13.53;;;20.00;1.00;;;;;;5078832;28;20203;-45
2023/07/23 05:46:43;;;;;;;14.20;13.40;;;20.10;1.00;;;;;;5081591;28;20631;-44
2023/07/23 05:49:09;;;;;;;14.23;13.43;;;20.20;1.00;;;;;;5082339;28;20215;-43
2023/07/23 05:51:34;;;;;;;14.50;13.60;;;20.30;1.00;;;;;;5082550;28;20211;-43
2023/07/23 05:54:00;;;;;;;13.97;13.17;;;20.40;1.00;;;;;;5073475;28;20201;-42
2023/07/23 05:56:26;;;;;;;14.33;13.33;;;20.50;1.00;;;;;;5071715;28;20192;-43
2023/07/23 05:58:52;;;;;;;14.00;13.20;;;20.50;1.00;;;;;;5081878;28;21103;-45
2023/07/23 06:01:18;;;;;;;14.63;13.83;;;20.70;1.00;;;;;;5082085;28;20425;-43
2023/07/23 06:03:43;;;;;;;14.47;13.67;;;20.70;1.00;;;;;;5082200;28;20230;-43
2023/07/23 06:06:09;;;;;;;13.93;13.13;;;20.80;1.00;;;;;;5082093;28;20248;-43
2023/07/23 06:08:34;;;;;;;14.60;13.70;;;20.90;1.00;;;;;;5081757;28;20200;-42
2023/07/23 06:11:00;;;;;;;13.40;12.70;;;21.00;1.00;;;;;;5080681;28;20211;-45
2023/07/23 06:13:25;;;;;;;13.90;13.10;;;21.20;1.00;;;;;;5081601;28;20195;-47
2023/07/23 06:15:51;;;;;;;14.03;13.23;;;21.30;1.00;;;;;;5081900;28;20185;-45
2023/07/23 06:18:17;;;;;;;13.53;12.83;;;21.50;99.90;;;;;;5080021;28;20685;-43
2023/07/23 06:20:42;;;;;;;13.67;12.87;;;21.70;99.90;;;;;;5081824;28;20188;-48
2023/07/23 06:23:08;;;;;;;13.67;12.97;;;22.00;99.90;;;;;;5081538;28;20185;-43
2023/07/23 06:25:34;;;;;;;13.40;12.63;;;22.10;99.90;;;;;;5081991;28;20519;-43
2023/07/23 06:27:59;;;;;;;14.63;13.83;;;22.30;99.90;;;;;;5081728;28;20188;-44
2023/07/23 06:30:25;;;;;;;13.63;12.83;;;22.50;99.90;;;;;;5081848;28;20259;-48
2023/07/23 06:32:51;;;;;;;14.27;13.47;;;22.60;99.90;;;;;;5081961;28;20467;-51
2023/07/23 06:35:16;;;;;;;13.93;13.07;;;22.80;99.90;;;;;;5081353;28;20185;-41
2023/07/23 06:37:42;;;;;;;13.30;12.60;;;23.00;99.90;;;;;;5080212;28;20200;-46
2023/07/23 06:40:08;;;;;;;13.10;12.30;;;23.10;99.90;;;;;;5081630;28;20238;-44
2023/07/23 06:42:34;;;;;;;12.80;12.10;;;23.30;99.90;;;;;;5067937;28;20185;-43
2023/07/23 06:44:59;;;;;;;12.90;12.20;;;23.50;99.90;;;;;;5081230;28;20402;-44
2023/07/23 06:47:25;;;;;;;12.20;11.60;;;23.60;99.90;;;;;;5080080;28;20188;-47
2023/07/23 06:49:51;;;;;;;12.50;11.80;;;23.70;99.90;;;;;;5081170;28;20192;-46
2023/07/23 06:52:16;;;;;;;13.17;12.47;;;23.80;99.90;;;;;;5080940;28;20241;-44
2023/07/23 06:54:42;;;;;;;12.47;11.83;;;23.90;99.90;;;;;;5074831;28;20196;-48
2023/07/23 06:57:08;;;;;;;12.90;12.20;;;24.10;99.90;;;;;;5080829;28;20692;-43
2023/07/23 06:59:34;;;;;;;12.57;11.87;;;24.40;99.90;;;;;;5080768;28;20454;-46
2023/07/23 07:02:00;;;;;;;12.70;12.10;;;24.50;99.90;;;;;;5080994;28;20450;-48
2023/07/23 07:04:26;;;;;;;13.20;12.50;;;24.60;99.90;;;;;;5080712;28;20415;-44
2023/07/23 07:06:52;;;;;;;12.50;11.90;;;24.60;99.90;;;;;;5080146;28;20245;-47
2023/07/23 07:09:17;;;;;;;13.27;12.57;;;24.70;99.90;;;;;;5068999;28;20422;-44
2023/07/23 07:11:43;;;;;;;12.87;12.17;;;24.80;99.90;;;;;;5069089;28;20926;-44
2023/07/23 07:14:09;;;;;;;13.50;12.80;;;24.90;99.90;;;;;;5080877;28;20188;-46
2023/07/23 07:16:34;;;;;;;13.57;12.67;;;25.00;99.90;;;;;;5078979;28;20900;-45
2023/07/23 07:19:00;;;;;;;13.23;12.53;;;25.10;99.90;;;;;;5080681;28;20285;-43
2023/07/23 07:21:25;;;;;;;13.30;12.60;;;25.10;99.90;;;;;;5079899;28;20191;-49
2023/07/23 07:23:51;;;;;;;12.77;12.07;;;25.30;99.90;;;;;;5080348;28;20272;-45
2023/07/23 07:26:16;;;;;;;13.03;12.13;;;25.20;99.90;;;;;;5080267;28;20503;-45
2023/07/23 07:28:42;;;;;;;12.80;12.20;;;25.40;99.90;;;;;;5080474;28;20220;-44
2023/07/23 07:31:10;;;;;;;12.87;12.27;;;25.60;99.90;;;;;;5071773;28;20195;-43
2023/07/23 07:33:37;;;;;;;13.07;12.27;;;25.80;99.90;;;;;;5080305;28;20173;-48
2023/07/23 07:36:02;;;;;;;13.10;12.20;;;25.90;99.90;;;;;;5079798;28;20429;-48
2023/07/23 07:38:28;;;;;;;12.50;11.90;;;26.10;99.90;;;;;;5080314;28;20462;-46
2023/07/23 07:40:57;;;;;;;13.30;12.60;;;26.20;99.90;;;;;;5078785;28;20253;-42
2023/07/23 07:43:23;;;;;;;13.30;12.60;;;26.30;99.90;;;;;;5076787;28;20431;-46
2023/07/23 07:46:05;;;;;;;12.50;11.80;;;26.30;99.90;;;;;;5079139;28;20485;-43
2023/07/23 07:48:31;;;;;;;11.90;11.30;;;26.10;99.90;;;;;;5079941;28;20419;-45
2023/07/23 07:51:02;;;;;;;12.90;12.10;;;25.90;99.90;;;;;;5080705;28;20806;-45
2023/07/23 07:53:28;;;;;;;13.30;12.60;;;26.00;99.90;;;;;;5075895;28;20600;-43
2023/07/23 07:55:55;;;;;;;13.37;12.57;;;25.90;99.90;;;;;;5078282;28;20529;-47
2023/07/23 07:58:24;;;;;;;13.07;12.40;;;25.80;99.90;;;;;;5079586;28;20258;-45
2023/07/23 08:01:02;;;;;;;13.30;12.60;;;25.90;99.90;;;;;;5079679;28;20554;-47
2023/07/23 08:03:29;;;;;;;12.77;11.87;;;25.90;99.90;;;;;;5078431;28;20418;-47
2023/07/23 08:05:56;;;;;;;12.03;11.33;;;25.90;99.90;;;;;;5079501;28;20430;-42
2023/07/23 08:08:27;;;;;;;12.83;12.13;;;26.00;99.90;;;;;;5079557;28;20563;-41
2023/07/23 08:10:57;;;;;;;12.50;11.77;;;26.00;99.90;;;;;;5079676;28;20434;-44
2023/07/23 08:13:24;;;;;;;11.97;11.37;;;26.00;99.90;;;;;;5079581;28;20426;-42
2023/07/23 08:15:50;;;;;;;11.20;10.60;;;26.00;99.90;;;;;;5079243;28;20426;-44
2023/07/23 08:18:16;;;;;;;12.40;11.80;;;26.10;99.90;;;;;;5079678;28;21015;-45
2023/07/23 08:20:42;;;;;;;12.60;11.90;;;26.20;99.90;;;;;;5080171;28;20715;-48
2023/07/23 08:23:08;;;;;;;11.47;10.87;;;26.10;99.90;;;;;;5079467;28;20926;-44
2023/07/23 08:25:35;;;;;;;11.97;11.10;;;26.30;99.90;;;;;;5079668;28;20469;-47
2023/07/23 08:28:01;;;;;;;11.83;11.17;;;26.20;99.90;;;;;;5079536;28;20196;-42
2023/07/23 08:30:28;;;;;;;11.60;11.00;;;26.30;99.90;;;;;;5079181;28;20790;-44
2023/07/23 08:32:56;;;;;;;12.50;11.80;;;26.20;99.90;;;;;;5078586;28;20529;-45
2023/07/23 08:35:23;;;;;;;11.83;11.10;;;26.40;99.90;;;;;;5079184;28;20419;-46
2023/07/23 08:37:49;;;;;;;10.43;9.93;;;26.40;99.90;;;;;;5079187;28;20462;-47
2023/07/23 08:40:15;;;;;;;11.20;10.60;;;26.40;99.90;;;;;;5079011;28;20498;-46
2023/07/23 08:43:03;;;;;;;11.10;10.30;;;26.40;99.90;;;;;;5066183;28;20419;-42
2023/07/23 08:46:20;;;;;;;11.87;11.10;;;26.60;99.90;;;;;;5079323;28;20418;-41
2023/07/23 08:49:03;;;;;;;11.90;11.07;;;26.60;99.90;;;;;;5079458;28;20452;-44
2023/07/23 08:51:40;;;;;;;12.33;11.50;;;26.60;99.90;;;;;;5067988;28;21218;-47
2023/07/23 08:54:06;;;;;;;11.37;10.77;;;26.50;99.90;;;;;;5073640;28;20857;-44
2023/07/23 08:56:33;;;;;;;12.07;11.47;;;26.50;99.90;;;;;;5079149;28;20430;-48
2023/07/23 08:59:04;;;;;;;12.10;11.50;;;26.80;99.90;;;;;;5077621;28;20458;-45
2023/07/23 09:01:33;;;;;;;11.83;11.20;;;27.10;99.90;;;;;;5078842;28;20417;-44
2023/07/23 09:03:59;;;;;;;12.37;11.77;;;27.00;99.90;;;;;;5079138;28;20468;-43
2023/07/23 09:06:28;;;;;;;11.67;11.00;;;26.80;99.90;;;;;;5078980;28;20589;-47
2023/07/23 09:08:54;;;;;;;10.93;10.33;;;26.90;99.90;;;;;;5078803;28;20429;-43
2023/07/23 09:11:19;;;;;;;11.97;11.37;;;26.80;99.90;;;;;;5078898;28;20801;-45
2023/07/23 09:13:45;;;;;;;10.60;9.90;;;26.90;99.90;;;;;;5069422;28;20192;-44
2023/07/23 09:16:10;;;;;;;11.40;10.90;;;26.90;99.90;;;;;;5078908;28;20795;-47
2023/07/23 09:18:41;;;;;;;11.00;10.47;;;27.00;99.90;;;;;;5078721;28;20212;-45
2023/07/23 09:21:07;;;;;;;10.90;10.40;;;27.00;99.90;;;;;;5078630;28;20169;-45
2023/07/23 09:23:33;;;;;;;11.37;10.87;;;27.40;99.90;;;;;;5078903;28;20782;-45
2023/07/23 09:25:59;;;;;;;12.07;11.37;;;27.70;99.90;;;;;;5078670;28;20458;-44
2023/07/23 09:28:26;;;;;;;12.13;11.53;;;28.10;99.90;;;;;;5078582;28;20479;-45
2023/07/23 09:30:54;;;;;;;11.27;10.77;;;28.70;99.90;;;;;;5077299;28;20957;-45
2023/07/23 09:33:20;;;;;;;11.33;10.80;;;29.10;99.90;;;;;;5077058;28;20426;-46
2023/07/23 09:35:46;;;;;;;11.87;10.97;;;29.40;99.90;;;;;;5078673;28;20442;-43
2023/07/23 09:38:13;;;;;;;12.30;11.70;;;29.60;99.90;;;;;;5078730;28;20491;-46
2023/07/23 09:40:41;;;;;;;11.80;11.20;;;29.90;99.90;;;;;;5078875;28;20177;-44
2023/07/23 09:43:08;;;;;;;10.93;10.43;;;29.90;99.90;;;;;;5063934;28;20419;-44
2023/07/23 09:45:40;;;;;;;12.10;11.50;;;29.90;99.90;;;;;;5080401;28;20688;-48
2023/07/23 09:48:07;;;;;;;12.00;11.50;;;29.80;99.90;;;;;;5069984;28;21047;-44
2023/07/23 09:50:32;;;;;;;11.47;10.97;;;29.10;99.90;;;;;;5082346;28;21369;-51
2023/07/23 09:52:58;;;;;;;12.00;11.40;;;29.10;99.90;;;;;;5082133;28;20517;-43
2023/07/23 09:55:24;;;;;;;10.80;10.30;;;29.30;99.90;;;;;;5076219;28;20176;-42
2023/07/23 09:57:51;;;;;;;11.40;10.90;;;29.70;99.90;;;;;;5081876;28;20212;-50
2023/07/23 10:00:18;;;;;;;12.00;11.40;;;29.50;99.90;;;;;;5082169;28;20204;-52
2023/07/23 10:02:48;;;;;;;11.23;10.73;;;29.50;99.90;;;;;;5081809;28;20920;-52
2023/07/23 10:05:18;;;;;;;11.50;11.00;;;29.90;99.90;;;;;;5069077;28;20822;-56
2023/07/23 10:07:46;;;;;;;11.77;11.17;;;30.30;99.90;;;;;;5081995;28;20457;-53
2023/07/23 10:10:15;;;;;;;11.50;11.00;;;30.90;99.90;;;;;;5081655;28;20454;-50
2023/07/23 10:12:42;;;;;;;11.07;10.57;;;31.00;99.90;;;;;;5070498;28;20429;-52
2023/07/23 10:15:08;;;;;;;11.57;11.07;;;30.70;99.90;;;;;;5082243;28;20409;-46
2023/07/23 10:17:39;;;;;;;10.83;10.33;;;31.00;99.90;;;;;;5082100;28;20454;-49
2023/07/23 10:20:07;;;;;;;11.83;11.33;;;31.40;99.90;;;;;;5082082;28;20414;-52
2023/07/23 10:22:34;;;;;;;10.80;10.30;;;31.50;99.90;;;;;;5081796;28;20813;-52
2023/07/23 10:25:00;;;;;;;11.07;10.57;;;31.20;99.90;;;;;;5081353;28;20896;-50
2023/07/23 10:27:25;;;;;;;10.27;9.87;;;30.90;99.90;;;;;;5081786;28;20421;-52
2023/07/23 10:30:20;;;;;;;10.60;10.10;;;30.40;99.90;;;;;;5080893;28;20251;-54
2023/07/23 10:33:06;;;;;;;10.80;10.13;;;30.30;99.90;;;;;;5080345;28;20701;-47
2023/07/23 10:35:53;;;;;;;11.23;10.73;;;30.50;99.90;;;;;;5081544;28;20430;-51
2023/07/23 10:38:30;;;;;;;11.63;11.13;;;30.30;99.90;;;;;;5081511;28;20466;-51
2023/07/23 10:40:56;;;;;;;11.33;10.83;;;29.70;99.90;;;;;;5079831;28;20414;-53
2023/07/23 10:43:21;;;;;;;11.27;10.77;;;29.30;99.90;;;;;;5069754;28;20433;-54
2023/07/23 10:46:01;;;;;;;12.33;11.63;;;29.10;99.90;;;;;;5080488;28;21130;-52
2023/07/23 10:48:44;;;;;;;11.23;10.73;;;28.70;99.90;;;;;;5081061;28;20176;-55
2023/07/23 10:51:14;;;;;;;11.50;11.00;;;28.80;99.90;;;;;;5081228;28;20724;-52
2023/07/23 10:54:10;;;;;;;11.37;10.87;;;28.90;99.90;;;;;;5075564;28;20410;-53
2023/07/23 10:56:38;;;;;;;10.47;9.97;;;29.30;99.90;;;;;;5071785;28;20687;-55
2023/07/23 10:59:08;;;;;;;11.50;11.00;;;30.20;99.90;;;;;;5080837;28;20450;-51
2023/07/23 11:01:45;;;;;;;11.43;10.93;;;30.90;99.90;;;;;;5081326;28;20741;-54
2023/07/23 11:04:13;;;;;;;10.63;10.13;;;31.50;99.90;;;;;;5081184;28;20467;-51
2023/07/23 11:06:53;;;;;;;11.77;11.27;;;31.90;99.90;;;;;;5080990;28;20415;-51
2023/07/23 11:09:27;;;;;;;12.50;11.90;;;31.80;99.90;;;;;;5081298;28;20500;-52
2023/07/23 11:11:55;;;;;;;10.30;9.83;;;31.90;99.90;;;;;;5080782;28;20931;-50
2023/07/23 11:14:29;;;;;;;12.77;12.17;;;31.40;99.90;;;;;;5080655;28;20414;-54
2023/07/23 11:17:00;;;;;;;11.70;11.17;;;30.90;99.90;;;;;;5080528;28;20888;-54
2023/07/23 11:19:27;;;;;;;12.50;11.90;;;30.70;99.90;;;;;;5080941;28;20888;-51
2023/07/23 11:21:59;;;;;;;11.20;10.70;;;30.50;99.90;;;;;;5080706;28;20469;-45
2023/07/23 11:24:26;;;;;;;11.23;10.73;;;30.60;99.90;;;;;;5080469;28;20500;-45
2023/07/23 11:26:56;;;;;;;11.23;10.73;;;30.90;99.90;;;;;;5080362;28;20415;-53
2023/07/23 11:29:24;;;;;;;12.30;11.60;;;31.00;99.90;;;;;;5080251;28;20876;-48
2023/07/23 11:31:51;;;;;;;12.73;12.00;;;30.90;99.90;;;;;;5079881;28;20426;-50
2023/07/23 11:34:17;;;;;;;12.03;11.43;;;30.50;99.90;;;;;;5080261;28;20483;-50
2023/07/23 11:36:42;;;;;;;12.57;11.97;;;30.30;99.90;;;;;;5080843;28;20406;-54
2023/07/23 11:39:09;;;;;;;12.13;11.40;;;30.00;99.90;;;;;;5080532;28;21029;-52
2023/07/23 11:41:41;;;;;;;11.43;10.93;;;30.30;99.90;;;;;;5073569;28;20169;-47
2023/07/23 11:44:09;;;;;;;11.37;10.77;;;30.90;99.90;;;;;;5074929;28;20422;-50
2023/07/23 11:46:40;;;;;;;12.07;11.43;;;31.30;99.90;;;;;;5079720;28;21031;-55
2023/07/23 11:49:08;;;;;;;12.10;11.50;;;31.90;99.90;;;;;;5079459;28;20888;-52
2023/07/23 11:51:34;;;;;;;11.33;10.73;;;31.80;99.90;;;;;;5068683;28;20430;-52
2023/07/23 11:54:07;;;;;;;11.60;10.93;;;31.30;99.90;;;;;;5074752;28;20708;-54
2023/07/23 11:56:41;;;;;;;12.17;11.47;;;31.10;99.90;;;;;;5079911;28;20642;-49
2023/07/23 11:59:10;;;;;;;11.57;10.97;;;30.80;99.90;;;;;;5079762;28;20537;-46
2023/07/23 12:01:37;;;;;;;12.87;12.27;;;30.50;99.90;;;;;;5079680;28;20417;-47
2023/07/23 12:04:04;;;;;;;11.83;11.23;;;30.30;99.90;;;;;;5078273;28;20406;-50
2023/07/23 12:06:36;;;;;;;12.40;11.70;;;30.40;99.90;;;;;;5079786;28;20532;-52
2023/07/23 12:09:09;;;;;;;12.20;11.60;;;30.40;99.90;;;;;;5078567;28;20501;-51
2023/07/23 12:11:38;;;;;;;13.47;12.77;;;30.00;99.90;;;;;;5079920;28;20410;-49
2023/07/23 12:14:05;;;;;;;12.40;11.60;;;30.10;99.90;;;;;;5072090;28;20426;-54
2023/07/23 12:16:42;;;;;;;12.60;12.00;;;30.10;99.90;;;;;;5074622;28;20509;-53
2023/07/23 12:19:10;;;;;;;13.10;12.40;;;29.90;99.90;;;;;;5079655;28;20454;-53
2023/07/23 12:21:42;;;;;;;12.60;12.00;;;29.80;99.90;;;;;;5079707;28;20407;-48
2023/07/23 12:24:18;;;;;;;11.67;10.97;;;29.60;99.90;;;;;;5079490;28;20474;-48
2023/07/23 12:26:51;;;;;;;11.53;10.93;;;29.70;99.90;;;;;;5079774;28;20471;-49
2023/07/23 12:29:18;;;;;;;11.27;10.67;;;29.60;99.90;;;;;;5079454;28;20445;-48